sensor_id;sensor_type;location;lat;lon;timestamp;P1;durP1;ratioP1;P2;durP2;ratioP2
17145;SDS011;8688;54.444;18.444;2022-12-13T00:00:30;1.97;;;1.30;;
17145;SDS011;8688;54.444;18.444;2022-12-13T00:02:57;3.33;;;1.57;;
17145;SDS011;8688;54.444;18.444;2022-12-13T00:05:24;2.60;;;1.13;;
17145;SDS011;8688;54.444;18.444;2022-12-13T00:07:52;3.03;;;1.37;;
17145;SDS011;8688;54.444;18.444;2022-12-13T00:10:19;2.27;;;1.27;;
17145;SDS011;8688;54.444;18.444;2022-12-13T00:12:47;2.97;;;1.50;;
17145;SDS011;8688;54.444;18.444;2022-12-13T00:15:14;3.43;;;1.20;;
17145;SDS011;8688;54.444;18.444;2022-12-13T00:17:43;1.40;;;1.27;;
17145;SDS011;8688;54.444;18.444;2022-12-13T00:20:11;2.37;;;1.40;;
17145;SDS011;8688;54.444;18.444;2022-12-13T00:22:38;4.30;;;1.60;;
17145;SDS011;8688;54.444;18.444;2022-12-13T00:25:06;4.90;;;1.70;;
17145;SDS011;8688;54.444;18.444;2022-12-13T00:27:34;3.20;;;1.70;;
17145;SDS011;8688;54.444;18.444;2022-12-13T00:30:01;2.73;;;1.40;;
17145;SDS011;8688;54.444;18.444;2022-12-13T00:32:29;1.50;;;1.07;;
17145;SDS011;8688;54.444;18.444;2022-12-13T00:34:58;2.10;;;1.37;;
17145;SDS011;8688;54.444;18.444;2022-12-13T00:37:25;2.50;;;1.20;;
17145;SDS011;8688;54.444;18.444;2022-12-13T00:39:53;3.53;;;1.70;;
17145;SDS011;8688;54.444;18.444;2022-12-13T00:42:20;3.37;;;1.37;;
17145;SDS011;8688;54.444;18.444;2022-12-13T00:44:47;2.83;;;1.30;;
17145;SDS011;8688;54.444;18.444;2022-12-13T00:47:15;2.43;;;1.47;;
17145;SDS011;8688;54.444;18.444;2022-12-13T00:49:45;2.90;;;1.33;;
17145;SDS011;8688;54.444;18.444;2022-12-13T00:52:14;3.67;;;2.00;;
17145;SDS011;8688;54.444;18.444;2022-12-13T00:54:41;2.57;;;1.37;;
17145;SDS011;8688;54.444;18.444;2022-12-13T00:57:09;2.83;;;1.50;;
17145;SDS011;8688;54.444;18.444;2022-12-13T00:59:36;1.77;;;1.30;;
17145;SDS011;8688;54.444;18.444;2022-12-13T01:02:04;3.17;;;1.50;;
17145;SDS011;8688;54.444;18.444;2022-12-13T01:04:31;2.30;;;1.37;;
17145;SDS011;8688;54.444;18.444;2022-12-13T01:06:59;2.37;;;1.33;;
17145;SDS011;8688;54.444;18.444;2022-12-13T01:09:28;3.13;;;1.10;;
17145;SDS011;8688;54.444;18.444;2022-12-13T01:11:57;3.13;;;1.50;;
17145;SDS011;8688;54.444;18.444;2022-12-13T01:14:25;2.53;;;1.40;;
17145;SDS011;8688;54.444;18.444;2022-12-13T01:16:53;3.60;;;1.63;;
17145;SDS011;8688;54.444;18.444;2022-12-13T01:19:21;2.57;;;1.50;;
17145;SDS011;8688;54.444;18.444;2022-12-13T01:21:50;2.63;;;1.17;;
17145;SDS011;8688;54.444;18.444;2022-12-13T01:24:20;4.33;;;1.70;;
17145;SDS011;8688;54.444;18.444;2022-12-13T01:26:50;2.30;;;1.53;;
17145;SDS011;8688;54.444;18.444;2022-12-13T01:29:19;1.97;;;1.20;;
17145;SDS011;8688;54.444;18.444;2022-12-13T01:31:47;2.93;;;1.60;;
17145;SDS011;8688;54.444;18.444;2022-12-13T01:34:16;2.30;;;1.37;;
17145;SDS011;8688;54.444;18.444;2022-12-13T01:36:45;2.43;;;1.67;;
17145;SDS011;8688;54.444;18.444;2022-12-13T01:39:15;2.87;;;1.50;;
17145;SDS011;8688;54.444;18.444;2022-12-13T01:41:45;4.57;;;1.67;;
17145;SDS011;8688;54.444;18.444;2022-12-13T01:47:21;1.53;;;1.10;;
17145;SDS011;8688;54.444;18.444;2022-12-13T01:49:52;2.83;;;1.13;;
17145;SDS011;8688;54.444;18.444;2022-12-13T01:52:22;3.30;;;1.60;;
17145;SDS011;8688;54.444;18.444;2022-12-13T01:54:51;2.10;;;1.50;;
17145;SDS011;8688;54.444;18.444;2022-12-13T01:57:21;2.10;;;1.30;;
17145;SDS011;8688;54.444;18.444;2022-12-13T01:59:49;2.57;;;1.37;;
17145;SDS011;8688;54.444;18.444;2022-12-13T02:02:20;3.90;;;1.70;;
17145;SDS011;8688;54.444;18.444;2022-12-13T02:04:49;1.43;;;1.10;;
17145;SDS011;8688;54.444;18.444;2022-12-13T02:07:23;2.40;;;1.40;;
17145;SDS011;8688;54.444;18.444;2022-12-13T02:09:55;2.63;;;1.80;;
17145;SDS011;8688;54.444;18.444;2022-12-13T02:12:25;2.37;;;1.30;;
17145;SDS011;8688;54.444;18.444;2022-12-13T02:14:54;3.37;;;1.80;;
17145;SDS011;8688;54.444;18.444;2022-12-13T02:17:26;2.93;;;1.10;;
17145;SDS011;8688;54.444;18.444;2022-12-13T02:23:11;4.13;;;1.47;;
17145;SDS011;8688;54.444;18.444;2022-12-13T02:25:53;2.00;;;1.40;;
17145;SDS011;8688;54.444;18.444;2022-12-13T02:28:47;1.60;;;1.23;;
17145;SDS011;8688;54.444;18.444;2022-12-13T02:31:29;2.97;;;1.47;;
17145;SDS011;8688;54.444;18.444;2022-12-13T02:34:05;2.47;;;1.20;;
17145;SDS011;8688;54.444;18.444;2022-12-13T02:36:37;2.50;;;1.67;;
17145;SDS011;8688;54.444;18.444;2022-12-13T02:39:13;2.87;;;1.70;;
17145;SDS011;8688;54.444;18.444;2022-12-13T02:41:47;1.47;;;1.13;;
17145;SDS011;8688;54.444;18.444;2022-12-13T02:44:17;2.33;;;1.40;;
17145;SDS011;8688;54.444;18.444;2022-12-13T02:46:48;3.40;;;1.40;;
17145;SDS011;8688;54.444;18.444;2022-12-13T02:49:18;3.83;;;1.80;;
17145;SDS011;8688;54.444;18.444;2022-12-13T02:51:49;2.87;;;1.60;;
17145;SDS011;8688;54.444;18.444;2022-12-13T02:54:18;5.20;;;1.80;;
17145;SDS011;8688;54.444;18.444;2022-12-13T02:56:52;3.77;;;2.00;;
17145;SDS011;8688;54.444;18.444;2022-12-13T02:59:20;2.33;;;1.30;;
17145;SDS011;8688;54.444;18.444;2022-12-13T03:01:53;2.77;;;1.77;;
17145;SDS011;8688;54.444;18.444;2022-12-13T03:04:34;2.73;;;1.63;;
17145;SDS011;8688;54.444;18.444;2022-12-13T03:07:33;1.50;;;1.30;;
17145;SDS011;8688;54.444;18.444;2022-12-13T03:10:08;3.07;;;1.73;;
17145;SDS011;8688;54.444;18.444;2022-12-13T03:12:44;3.90;;;1.90;;
17145;SDS011;8688;54.444;18.444;2022-12-13T03:15:34;2.13;;;1.50;;
17145;SDS011;8688;54.444;18.444;2022-12-13T03:18:11;2.40;;;1.53;;
17145;SDS011;8688;54.444;18.444;2022-12-13T03:20:43;5.87;;;2.47;;
17145;SDS011;8688;54.444;18.444;2022-12-13T03:23:12;3.40;;;2.13;;
17145;SDS011;8688;54.444;18.444;2022-12-13T03:25:41;4.53;;;1.93;;
17145;SDS011;8688;54.444;18.444;2022-12-13T03:28:09;3.67;;;1.20;;
17145;SDS011;8688;54.444;18.444;2022-12-13T03:30:37;2.17;;;1.57;;
17145;SDS011;8688;54.444;18.444;2022-12-13T03:33:05;3.73;;;1.80;;
17145;SDS011;8688;54.444;18.444;2022-12-13T03:35:34;3.13;;;1.77;;
17145;SDS011;8688;54.444;18.444;2022-12-13T03:38:02;2.80;;;1.70;;
17145;SDS011;8688;54.444;18.444;2022-12-13T03:40:30;3.57;;;2.00;;
17145;SDS011;8688;54.444;18.444;2022-12-13T03:42:58;3.67;;;1.70;;
17145;SDS011;8688;54.444;18.444;2022-12-13T03:45:26;4.77;;;2.00;;
17145;SDS011;8688;54.444;18.444;2022-12-13T03:47:53;6.53;;;2.33;;
17145;SDS011;8688;54.444;18.444;2022-12-13T03:50:21;3.33;;;1.30;;
17145;SDS011;8688;54.444;18.444;2022-12-13T03:52:50;2.97;;;1.77;;
17145;SDS011;8688;54.444;18.444;2022-12-13T03:55:23;3.63;;;1.97;;
17145;SDS011;8688;54.444;18.444;2022-12-13T03:57:50;3.00;;;1.60;;
17145;SDS011;8688;54.444;18.444;2022-12-13T04:00:18;3.00;;;2.00;;
17145;SDS011;8688;54.444;18.444;2022-12-13T04:02:45;2.97;;;1.30;;
17145;SDS011;8688;54.444;18.444;2022-12-13T04:05:13;2.47;;;1.50;;
17145;SDS011;8688;54.444;18.444;2022-12-13T04:07:40;4.13;;;1.93;;
17145;SDS011;8688;54.444;18.444;2022-12-13T04:10:09;4.43;;;2.30;;
17145;SDS011;8688;54.444;18.444;2022-12-13T04:12:37;5.00;;;2.10;;
17145;SDS011;8688;54.444;18.444;2022-12-13T04:15:22;2.67;;;1.23;;
17145;SDS011;8688;54.444;18.444;2022-12-13T04:17:49;4.27;;;2.00;;
17145;SDS011;8688;54.444;18.444;2022-12-13T04:20:16;6.40;;;2.40;;
17145;SDS011;8688;54.444;18.444;2022-12-13T04:22:44;4.63;;;2.17;;
17145;SDS011;8688;54.444;18.444;2022-12-13T04:25:13;2.90;;;1.87;;
17145;SDS011;8688;54.444;18.444;2022-12-13T04:27:40;4.13;;;1.53;;
17145;SDS011;8688;54.444;18.444;2022-12-13T04:30:08;2.53;;;1.53;;
17145;SDS011;8688;54.444;18.444;2022-12-13T04:32:36;3.27;;;1.70;;
17145;SDS011;8688;54.444;18.444;2022-12-13T04:35:04;2.77;;;1.70;;
17145;SDS011;8688;54.444;18.444;2022-12-13T04:37:31;2.40;;;1.77;;
17145;SDS011;8688;54.444;18.444;2022-12-13T04:40:01;2.97;;;1.50;;
17145;SDS011;8688;54.444;18.444;2022-12-13T04:42:30;1.83;;;1.30;;
17145;SDS011;8688;54.444;18.444;2022-12-13T04:44:58;3.63;;;2.30;;
17145;SDS011;8688;54.444;18.444;2022-12-13T04:47:25;2.90;;;1.60;;
17145;SDS011;8688;54.444;18.444;2022-12-13T04:49:52;2.53;;;1.87;;
17145;SDS011;8688;54.444;18.444;2022-12-13T04:52:20;3.50;;;1.53;;
17145;SDS011;8688;54.444;18.444;2022-12-13T04:54:47;3.90;;;2.00;;
17145;SDS011;8688;54.444;18.444;2022-12-13T04:57:15;5.77;;;2.27;;
17145;SDS011;8688;54.444;18.444;2022-12-13T04:59:44;4.47;;;2.10;;
17145;SDS011;8688;54.444;18.444;2022-12-13T05:02:11;2.97;;;1.60;;
17145;SDS011;8688;54.444;18.444;2022-12-13T05:04:40;4.77;;;2.10;;
17145;SDS011;8688;54.444;18.444;2022-12-13T05:07:07;3.50;;;1.60;;
17145;SDS011;8688;54.444;18.444;2022-12-13T05:09:34;4.97;;;2.40;;
17145;SDS011;8688;54.444;18.444;2022-12-13T05:12:02;4.07;;;1.70;;
17145;SDS011;8688;54.444;18.444;2022-12-13T05:14:30;5.27;;;2.30;;
17145;SDS011;8688;54.444;18.444;2022-12-13T05:16:59;4.13;;;2.23;;
17145;SDS011;8688;54.444;18.444;2022-12-13T05:19:27;2.87;;;1.60;;
17145;SDS011;8688;54.444;18.444;2022-12-13T05:21:54;3.40;;;2.00;;
17145;SDS011;8688;54.444;18.444;2022-12-13T05:24:22;4.67;;;2.33;;
17145;SDS011;8688;54.444;18.444;2022-12-13T05:26:49;2.57;;;1.93;;
17145;SDS011;8688;54.444;18.444;2022-12-13T05:29:17;4.83;;;2.40;;
17145;SDS011;8688;54.444;18.444;2022-12-13T05:31:44;5.07;;;2.40;;
17145;SDS011;8688;54.444;18.444;2022-12-13T05:34:14;5.17;;;2.57;;
17145;SDS011;8688;54.444;18.444;2022-12-13T05:36:41;4.77;;;2.50;;
17145;SDS011;8688;54.444;18.444;2022-12-13T05:39:09;5.30;;;2.90;;
17145;SDS011;8688;54.444;18.444;2022-12-13T05:41:36;4.10;;;2.20;;
17145;SDS011;8688;54.444;18.444;2022-12-13T05:44:04;6.83;;;2.40;;
17145;SDS011;8688;54.444;18.444;2022-12-13T05:46:31;3.77;;;2.20;;
17145;SDS011;8688;54.444;18.444;2022-12-13T05:48:59;3.97;;;2.50;;
17145;SDS011;8688;54.444;18.444;2022-12-13T05:51:28;5.83;;;2.60;;
17145;SDS011;8688;54.444;18.444;2022-12-13T05:53:55;5.47;;;2.23;;
17145;SDS011;8688;54.444;18.444;2022-12-13T05:56:23;6.67;;;2.50;;
17145;SDS011;8688;54.444;18.444;2022-12-13T05:58:50;4.93;;;2.50;;
17145;SDS011;8688;54.444;18.444;2022-12-13T06:01:18;4.40;;;2.40;;
17145;SDS011;8688;54.444;18.444;2022-12-13T06:03:46;4.73;;;2.70;;
17145;SDS011;8688;54.444;18.444;2022-12-13T06:06:14;7.63;;;3.00;;
17145;SDS011;8688;54.444;18.444;2022-12-13T06:08:43;6.40;;;2.80;;
17145;SDS011;8688;54.444;18.444;2022-12-13T06:11:11;5.33;;;2.30;;
17145;SDS011;8688;54.444;18.444;2022-12-13T06:13:40;4.90;;;2.27;;
17145;SDS011;8688;54.444;18.444;2022-12-13T06:16:08;4.97;;;2.50;;
17145;SDS011;8688;54.444;18.444;2022-12-13T06:18:36;6.30;;;3.00;;
17145;SDS011;8688;54.444;18.444;2022-12-13T06:21:04;6.90;;;3.10;;
17145;SDS011;8688;54.444;18.444;2022-12-13T06:23:33;6.23;;;2.53;;
17145;SDS011;8688;54.444;18.444;2022-12-13T06:26:03;4.17;;;2.20;;
17145;SDS011;8688;54.444;18.444;2022-12-13T06:28:31;2.80;;;2.10;;
17145;SDS011;8688;54.444;18.444;2022-12-13T06:30:59;5.93;;;2.40;;
17145;SDS011;8688;54.444;18.444;2022-12-13T06:33:27;5.80;;;2.47;;
17145;SDS011;8688;54.444;18.444;2022-12-13T06:35:55;4.27;;;2.20;;
17145;SDS011;8688;54.444;18.444;2022-12-13T06:38:23;5.37;;;2.40;;
17145;SDS011;8688;54.444;18.444;2022-12-13T06:40:51;4.90;;;2.70;;
17145;SDS011;8688;54.444;18.444;2022-12-13T06:43:20;4.73;;;2.77;;
17145;SDS011;8688;54.444;18.444;2022-12-13T06:45:47;3.07;;;1.93;;
17145;SDS011;8688;54.444;18.444;2022-12-13T06:48:15;5.30;;;2.90;;
17145;SDS011;8688;54.444;18.444;2022-12-13T06:50:42;6.23;;;2.13;;
17145;SDS011;8688;54.444;18.444;2022-12-13T06:53:10;10.60;;;3.27;;
17145;SDS011;8688;54.444;18.444;2022-12-13T06:55:37;6.53;;;2.50;;
17145;SDS011;8688;54.444;18.444;2022-12-13T06:58:05;8.10;;;3.10;;
17145;SDS011;8688;54.444;18.444;2022-12-13T07:00:34;9.17;;;2.97;;
17145;SDS011;8688;54.444;18.444;2022-12-13T07:03:01;9.63;;;3.47;;
17145;SDS011;8688;54.444;18.444;2022-12-13T07:05:29;6.23;;;3.10;;
17145;SDS011;8688;54.444;18.444;2022-12-13T07:07:56;8.33;;;3.63;;
17145;SDS011;8688;54.444;18.444;2022-12-13T07:10:24;5.93;;;2.70;;
17145;SDS011;8688;54.444;18.444;2022-12-13T07:12:51;6.47;;;2.70;;
17145;SDS011;8688;54.444;18.444;2022-12-13T07:15:19;7.30;;;2.97;;
17145;SDS011;8688;54.444;18.444;2022-12-13T07:17:49;6.03;;;3.03;;
17145;SDS011;8688;54.444;18.444;2022-12-13T07:20:17;5.60;;;2.50;;
17145;SDS011;8688;54.444;18.444;2022-12-13T07:22:45;5.53;;;2.50;;
17145;SDS011;8688;54.444;18.444;2022-12-13T07:25:17;4.57;;;2.43;;
17145;SDS011;8688;54.444;18.444;2022-12-13T07:27:46;3.77;;;2.40;;
17145;SDS011;8688;54.444;18.444;2022-12-13T07:30:14;4.97;;;2.83;;
17145;SDS011;8688;54.444;18.444;2022-12-13T07:32:41;8.23;;;3.00;;
17145;SDS011;8688;54.444;18.444;2022-12-13T07:35:10;8.27;;;2.83;;
17145;SDS011;8688;54.444;18.444;2022-12-13T07:37:38;7.57;;;2.80;;
17145;SDS011;8688;54.444;18.444;2022-12-13T07:40:06;6.50;;;3.00;;
17145;SDS011;8688;54.444;18.444;2022-12-13T07:42:35;9.67;;;2.83;;
17145;SDS011;8688;54.444;18.444;2022-12-13T07:45:02;6.50;;;2.77;;
17145;SDS011;8688;54.444;18.444;2022-12-13T07:47:30;7.90;;;3.50;;
17145;SDS011;8688;54.444;18.444;2022-12-13T07:49:58;8.60;;;3.87;;
17145;SDS011;8688;54.444;18.444;2022-12-13T07:52:27;14.60;;;7.53;;
17145;SDS011;8688;54.444;18.444;2022-12-13T07:54:54;8.17;;;4.70;;
17145;SDS011;8688;54.444;18.444;2022-12-13T07:57:22;5.17;;;3.67;;
17145;SDS011;8688;54.444;18.444;2022-12-13T07:59:49;9.43;;;5.47;;
17145;SDS011;8688;54.444;18.444;2022-12-13T08:02:17;8.23;;;3.50;;
17145;SDS011;8688;54.444;18.444;2022-12-13T08:04:44;5.83;;;3.30;;
17145;SDS011;8688;54.444;18.444;2022-12-13T08:07:12;6.37;;;3.20;;
17145;SDS011;8688;54.444;18.444;2022-12-13T08:09:42;6.77;;;2.70;;
17145;SDS011;8688;54.444;18.444;2022-12-13T08:12:10;9.90;;;4.57;;
17145;SDS011;8688;54.444;18.444;2022-12-13T08:14:37;5.13;;;2.13;;
17145;SDS011;8688;54.444;18.444;2022-12-13T08:17:04;15.17;;;5.67;;
17145;SDS011;8688;54.444;18.444;2022-12-13T08:19:32;10.20;;;3.10;;
17145;SDS011;8688;54.444;18.444;2022-12-13T08:22:00;11.43;;;4.13;;
17145;SDS011;8688;54.444;18.444;2022-12-13T08:24:28;9.43;;;4.00;;
17145;SDS011;8688;54.444;18.444;2022-12-13T08:26:59;10.47;;;3.60;;
17145;SDS011;8688;54.444;18.444;2022-12-13T08:29:28;10.93;;;3.07;;
17145;SDS011;8688;54.444;18.444;2022-12-13T08:31:57;11.77;;;3.70;;
17145;SDS011;8688;54.444;18.444;2022-12-13T08:34:24;8.87;;;2.87;;
17145;SDS011;8688;54.444;18.444;2022-12-13T08:36:51;19.80;;;6.13;;
17145;SDS011;8688;54.444;18.444;2022-12-13T08:39:19;15.03;;;4.13;;
17145;SDS011;8688;54.444;18.444;2022-12-13T08:41:46;8.50;;;3.47;;
17145;SDS011;8688;54.444;18.444;2022-12-13T08:44:15;24.10;;;5.37;;
17145;SDS011;8688;54.444;18.444;2022-12-13T08:46:42;13.73;;;5.53;;
17145;SDS011;8688;54.444;18.444;2022-12-13T08:49:10;7.67;;;3.60;;
17145;SDS011;8688;54.444;18.444;2022-12-13T08:51:37;10.60;;;4.27;;
17145;SDS011;8688;54.444;18.444;2022-12-13T08:54:05;6.43;;;3.23;;
17145;SDS011;8688;54.444;18.444;2022-12-13T08:56:32;6.40;;;3.17;;
17145;SDS011;8688;54.444;18.444;2022-12-13T08:59:00;6.57;;;2.90;;
17145;SDS011;8688;54.444;18.444;2022-12-13T09:01:29;7.17;;;2.97;;
17145;SDS011;8688;54.444;18.444;2022-12-13T09:03:57;12.27;;;5.93;;
17145;SDS011;8688;54.444;18.444;2022-12-13T09:06:24;8.80;;;5.10;;
17145;SDS011;8688;54.444;18.444;2022-12-13T09:08:52;12.00;;;5.13;;
17145;SDS011;8688;54.444;18.444;2022-12-13T09:11:19;7.23;;;4.17;;
17145;SDS011;8688;54.444;18.444;2022-12-13T09:13:47;10.10;;;3.70;;
17145;SDS011;8688;54.444;18.444;2022-12-13T09:16:15;12.23;;;3.80;;
17145;SDS011;8688;54.444;18.444;2022-12-13T09:18:47;11.43;;;4.30;;
17145;SDS011;8688;54.444;18.444;2022-12-13T09:21:15;10.70;;;3.40;;
17145;SDS011;8688;54.444;18.444;2022-12-13T09:23:43;6.40;;;2.70;;
17145;SDS011;8688;54.444;18.444;2022-12-13T09:26:11;6.43;;;3.03;;
17145;SDS011;8688;54.444;18.444;2022-12-13T09:28:40;6.93;;;3.30;;
17145;SDS011;8688;54.444;18.444;2022-12-13T09:31:08;5.27;;;2.70;;
17145;SDS011;8688;54.444;18.444;2022-12-13T09:33:36;5.77;;;2.90;;
17145;SDS011;8688;54.444;18.444;2022-12-13T09:36:06;5.53;;;2.70;;
17145;SDS011;8688;54.444;18.444;2022-12-13T09:38:35;7.73;;;2.93;;
17145;SDS011;8688;54.444;18.444;2022-12-13T09:41:05;7.27;;;3.27;;
17145;SDS011;8688;54.444;18.444;2022-12-13T09:43:41;6.77;;;3.23;;
17145;SDS011;8688;54.444;18.444;2022-12-13T09:46:12;10.97;;;4.47;;
17145;SDS011;8688;54.444;18.444;2022-12-13T09:48:47;16.33;;;8.27;;
17145;SDS011;8688;54.444;18.444;2022-12-13T09:51:17;47.03;;;15.70;;
17145;SDS011;8688;54.444;18.444;2022-12-13T09:53:44;30.67;;;12.03;;
17145;SDS011;8688;54.444;18.444;2022-12-13T09:56:15;8.93;;;4.67;;
17145;SDS011;8688;54.444;18.444;2022-12-13T09:58:46;6.63;;;3.37;;
17145;SDS011;8688;54.444;18.444;2022-12-13T10:01:15;8.20;;;4.63;;
17145;SDS011;8688;54.444;18.444;2022-12-13T10:03:44;7.57;;;4.03;;
17145;SDS011;8688;54.444;18.444;2022-12-13T10:06:17;7.03;;;2.70;;
17145;SDS011;8688;54.444;18.444;2022-12-13T10:08:46;8.83;;;3.80;;
17145;SDS011;8688;54.444;18.444;2022-12-13T10:11:17;7.07;;;3.57;;
17145;SDS011;8688;54.444;18.444;2022-12-13T10:13:46;9.07;;;4.63;;
17145;SDS011;8688;54.444;18.444;2022-12-13T10:16:24;7.30;;;3.13;;
17145;SDS011;8688;54.444;18.444;2022-12-13T10:18:54;8.07;;;3.33;;
17145;SDS011;8688;54.444;18.444;2022-12-13T10:21:25;6.77;;;3.47;;
17145;SDS011;8688;54.444;18.444;2022-12-13T10:23:56;6.03;;;3.23;;
17145;SDS011;8688;54.444;18.444;2022-12-13T10:26:34;10.00;;;3.57;;
17145;SDS011;8688;54.444;18.444;2022-12-13T10:29:03;9.27;;;4.03;;
17145;SDS011;8688;54.444;18.444;2022-12-13T10:31:37;21.10;;;6.87;;
17145;SDS011;8688;54.444;18.444;2022-12-13T10:34:08;14.23;;;5.70;;
17145;SDS011;8688;54.444;18.444;2022-12-13T10:36:52;19.07;;;7.20;;
17145;SDS011;8688;54.444;18.444;2022-12-13T10:39:34;11.23;;;4.43;;
17145;SDS011;8688;54.444;18.444;2022-12-13T10:42:04;12.37;;;4.97;;
17145;SDS011;8688;54.444;18.444;2022-12-13T10:44:36;9.90;;;4.43;;
17145;SDS011;8688;54.444;18.444;2022-12-13T10:47:11;8.60;;;3.80;;
17145;SDS011;8688;54.444;18.444;2022-12-13T10:49:46;9.50;;;4.00;;
17145;SDS011;8688;54.444;18.444;2022-12-13T10:52:22;9.60;;;3.33;;
17145;SDS011;8688;54.444;18.444;2022-12-13T10:54:52;10.10;;;4.77;;
17145;SDS011;8688;54.444;18.444;2022-12-13T10:57:21;7.33;;;3.50;;
17145;SDS011;8688;54.444;18.444;2022-12-13T10:59:50;10.13;;;3.40;;
17145;SDS011;8688;54.444;18.444;2022-12-13T11:02:27;9.50;;;4.27;;
17145;SDS011;8688;54.444;18.444;2022-12-13T11:05:00;7.93;;;3.67;;
17145;SDS011;8688;54.444;18.444;2022-12-13T11:07:50;13.40;;;4.47;;
17145;SDS011;8688;54.444;18.444;2022-12-13T11:10:21;9.73;;;3.73;;
17145;SDS011;8688;54.444;18.444;2022-12-13T11:12:51;7.23;;;3.60;;
17145;SDS011;8688;54.444;18.444;2022-12-13T11:15:23;13.60;;;5.50;;
17145;SDS011;8688;54.444;18.444;2022-12-13T11:17:54;18.77;;;7.20;;
17145;SDS011;8688;54.444;18.444;2022-12-13T11:20:25;10.40;;;3.90;;
17145;SDS011;8688;54.444;18.444;2022-12-13T11:22:59;12.57;;;5.27;;
17145;SDS011;8688;54.444;18.444;2022-12-13T11:25:29;14.93;;;6.70;;
17145;SDS011;8688;54.444;18.444;2022-12-13T11:28:06;12.00;;;5.80;;
17145;SDS011;8688;54.444;18.444;2022-12-13T11:30:45;11.37;;;3.77;;
17145;SDS011;8688;54.444;18.444;2022-12-13T11:33:20;5.93;;;3.53;;
17145;SDS011;8688;54.444;18.444;2022-12-13T11:35:59;13.13;;;4.80;;
17145;SDS011;8688;54.444;18.444;2022-12-13T11:38:37;14.30;;;6.20;;
17145;SDS011;8688;54.444;18.444;2022-12-13T11:41:21;25.07;;;8.23;;
17145;SDS011;8688;54.444;18.444;2022-12-13T11:43:53;22.13;;;8.70;;
17145;SDS011;8688;54.444;18.444;2022-12-13T11:46:25;28.10;;;10.13;;
17145;SDS011;8688;54.444;18.444;2022-12-13T11:49:01;22.23;;;7.33;;
17145;SDS011;8688;54.444;18.444;2022-12-13T11:51:36;34.53;;;13.57;;
17145;SDS011;8688;54.444;18.444;2022-12-13T11:54:09;17.27;;;10.07;;
17145;SDS011;8688;54.444;18.444;2022-12-13T11:56:45;12.23;;;7.13;;
17145;SDS011;8688;54.444;18.444;2022-12-13T11:59:17;10.87;;;5.07;;
17145;SDS011;8688;54.444;18.444;2022-12-13T12:01:53;5.17;;;2.77;;
17145;SDS011;8688;54.444;18.444;2022-12-13T12:04:28;5.23;;;2.30;;
17145;SDS011;8688;54.444;18.444;2022-12-13T12:07:03;4.17;;;2.00;;
17145;SDS011;8688;54.444;18.444;2022-12-13T12:09:37;1.80;;;1.43;;
17145;SDS011;8688;54.444;18.444;2022-12-13T12:12:10;2.13;;;1.50;;
17145;SDS011;8688;54.444;18.444;2022-12-13T12:14:44;3.80;;;2.07;;
17145;SDS011;8688;54.444;18.444;2022-12-13T12:17:18;2.57;;;1.50;;
17145;SDS011;8688;54.444;18.444;2022-12-13T12:19:50;5.20;;;2.63;;
17145;SDS011;8688;54.444;18.444;2022-12-13T12:22:23;3.33;;;1.00;;
17145;SDS011;8688;54.444;18.444;2022-12-13T12:25:02;2.03;;;1.33;;
17145;SDS011;8688;54.444;18.444;2022-12-13T12:27:43;5.53;;;1.60;;
17145;SDS011;8688;54.444;18.444;2022-12-13T12:30:15;3.30;;;1.10;;
17145;SDS011;8688;54.444;18.444;2022-12-13T12:32:48;4.00;;;1.13;;
17145;SDS011;8688;54.444;18.444;2022-12-13T12:35:28;5.03;;;2.40;;
17145;SDS011;8688;54.444;18.444;2022-12-13T12:38:28;2.83;;;1.40;;
17145;SDS011;8688;54.444;18.444;2022-12-13T12:41:19;4.13;;;1.90;;
17145;SDS011;8688;54.444;18.444;2022-12-13T12:44:10;4.17;;;1.50;;
17145;SDS011;8688;54.444;18.444;2022-12-13T12:46:50;4.50;;;1.80;;
17145;SDS011;8688;54.444;18.444;2022-12-13T12:52:40;4.30;;;1.70;;
17145;SDS011;8688;54.444;18.444;2022-12-13T12:55:17;2.23;;;1.37;;
17145;SDS011;8688;54.444;18.444;2022-12-13T12:57:56;9.80;;;4.13;;
17145;SDS011;8688;54.444;18.444;2022-12-13T13:00:29;33.47;;;16.83;;
17145;SDS011;8688;54.444;18.444;2022-12-13T13:03:07;26.10;;;13.10;;
17145;SDS011;8688;54.444;18.444;2022-12-13T13:05:43;18.40;;;7.90;;
17145;SDS011;8688;54.444;18.444;2022-12-13T13:08:14;4.23;;;2.20;;
17145;SDS011;8688;54.444;18.444;2022-12-13T13:10:46;9.03;;;3.50;;
17145;SDS011;8688;54.444;18.444;2022-12-13T13:13:36;10.20;;;4.20;;
17145;SDS011;8688;54.444;18.444;2022-12-13T13:18:58;8.07;;;3.50;;
17145;SDS011;8688;54.444;18.444;2022-12-13T13:21:42;6.33;;;2.87;;
17145;SDS011;8688;54.444;18.444;2022-12-13T13:24:12;3.33;;;2.20;;
17145;SDS011;8688;54.444;18.444;2022-12-13T13:26:42;14.43;;;5.97;;
17145;SDS011;8688;54.444;18.444;2022-12-13T13:29:30;28.37;;;12.03;;
17145;SDS011;8688;54.444;18.444;2022-12-13T13:32:01;12.03;;;6.60;;
17145;SDS011;8688;54.444;18.444;2022-12-13T13:34:31;6.33;;;4.50;;
17145;SDS011;8688;54.444;18.444;2022-12-13T13:37:00;9.10;;;4.67;;
17145;SDS011;8688;54.444;18.444;2022-12-13T13:39:36;9.50;;;4.13;;
17145;SDS011;8688;54.444;18.444;2022-12-13T13:42:22;7.90;;;3.10;;
17145;SDS011;8688;54.444;18.444;2022-12-13T13:44:55;11.13;;;3.43;;
17145;SDS011;8688;54.444;18.444;2022-12-13T13:47:29;7.13;;;3.30;;
17145;SDS011;8688;54.444;18.444;2022-12-13T13:50:12;12.63;;;3.50;;
17145;SDS011;8688;54.444;18.444;2022-12-13T13:53:01;19.00;;;3.97;;
17145;SDS011;8688;54.444;18.444;2022-12-13T13:55:42;14.00;;;3.77;;
17145;SDS011;8688;54.444;18.444;2022-12-13T13:58:27;11.87;;;4.30;;
17145;SDS011;8688;54.444;18.444;2022-12-13T14:07:45;12.53;;;4.53;;
17145;SDS011;8688;54.444;18.444;2022-12-13T14:10:42;11.17;;;4.80;;
17145;SDS011;8688;54.444;18.444;2022-12-13T14:19:40;13.60;;;4.53;;
17145;SDS011;8688;54.444;18.444;2022-12-13T14:22:29;12.43;;;5.43;;
17145;SDS011;8688;54.444;18.444;2022-12-13T14:27:52;7.07;;;3.20;;
17145;SDS011;8688;54.444;18.444;2022-12-13T14:30:25;9.13;;;3.00;;
17145;SDS011;8688;54.444;18.444;2022-12-13T14:32:54;5.60;;;2.87;;
17145;SDS011;8688;54.444;18.444;2022-12-13T14:35:23;5.70;;;2.63;;
17145;SDS011;8688;54.444;18.444;2022-12-13T14:37:55;6.83;;;3.50;;
17145;SDS011;8688;54.444;18.444;2022-12-13T14:40:25;6.80;;;3.20;;
17145;SDS011;8688;54.444;18.444;2022-12-13T14:42:55;6.50;;;3.00;;
17145;SDS011;8688;54.444;18.444;2022-12-13T14:45:23;7.33;;;2.80;;
17145;SDS011;8688;54.444;18.444;2022-12-13T14:47:55;21.77;;;13.37;;
17145;SDS011;8688;54.444;18.444;2022-12-13T14:50:24;23.43;;;11.97;;
17145;SDS011;8688;54.444;18.444;2022-12-13T14:52:52;10.47;;;4.67;;
17145;SDS011;8688;54.444;18.444;2022-12-13T14:55:23;6.00;;;3.30;;
17145;SDS011;8688;54.444;18.444;2022-12-13T14:57:52;8.07;;;2.90;;
17145;SDS011;8688;54.444;18.444;2022-12-13T15:00:23;6.23;;;2.80;;
17145;SDS011;8688;54.444;18.444;2022-12-13T15:02:53;5.13;;;3.00;;
17145;SDS011;8688;54.444;18.444;2022-12-13T15:05:25;7.07;;;2.67;;
17145;SDS011;8688;54.444;18.444;2022-12-13T15:07:53;5.23;;;3.40;;
17145;SDS011;8688;54.444;18.444;2022-12-13T15:10:23;5.73;;;2.60;;
17145;SDS011;8688;54.444;18.444;2022-12-13T15:12:57;7.43;;;3.20;;
17145;SDS011;8688;54.444;18.444;2022-12-13T15:15:26;4.47;;;2.40;;
17145;SDS011;8688;54.444;18.444;2022-12-13T15:18:14;6.77;;;2.60;;
17145;SDS011;8688;54.444;18.444;2022-12-13T15:20:43;7.90;;;3.30;;
17145;SDS011;8688;54.444;18.444;2022-12-13T15:23:13;10.57;;;5.27;;
17145;SDS011;8688;54.444;18.444;2022-12-13T15:25:51;15.67;;;6.17;;
17145;SDS011;8688;54.444;18.444;2022-12-13T15:28:24;9.00;;;3.97;;
17145;SDS011;8688;54.444;18.444;2022-12-13T15:30:55;4.90;;;2.93;;
17145;SDS011;8688;54.444;18.444;2022-12-13T15:33:26;7.07;;;3.30;;
17145;SDS011;8688;54.444;18.444;2022-12-13T15:36:02;7.37;;;3.87;;